METAR TAF

[Source: ADDS]
METAR
LFCR 181130Z AUTO 35004KT 290V030 9999 FEW018 05/01 Q1013 NOSIG =
LFCR 181100Z 1812/1912 VRB02KT CAVOK BECMG 1813/1815 34006KT BECMG 1821/1824 3000 BR OVC003 TEMPO 1900/1907 VRB02KT 0500 FG VV/// PROB40 TEMPO 1901/1906 0200 FG VV/// BECMG 1908/1911 8000 NSW BKN006 LFBA 181130Z AUTO 30007KT 9999 FEW015 OVC046 07/05 Q1016 NOSIG =
LFBA 181100Z 1812/1821 29007KT 9999 BKN045 LFSL 181130Z AUTO VRB02KT 9999 SCT041 07/02 Q1014 NOSIG =
LFSL 181100Z 1812/1821 VRB02KT CAVOK LFLW 181130Z AUTO VRB02KT 9999 ////// 06/01 Q1012 =
LFLW 181100Z 1812/1821 VRB02KT CAVOK
TAF
LFCR 181100Z 1812/1912 VRB02KT CAVOK BECMG 1813/1815 34006KT BECMG 1821/1824 3000 BR OVC003 TEMPO 1900/1907 VRB02KT 0500 FG VV/// PROB40 TEMPO 1901/1906 0200 FG VV/// BECMG 1908/1911 8000 NSW BKN006 =
LFBA 181100Z 1812/1821 29007KT 9999 BKN045 =
LFSL 181100Z 1812/1821 VRB02KT CAVOK =
LFLW 181100Z 1812/1821 VRB02KT CAVOK =
SR / SS: 06:53 / 16:24 UTC (LFCC 2019-11-18)